Time;durP1;ratioP1;P1;durP2;ratioP2;P2;SDS_P1;SDS_P2;PMS_P1;PMS_P2;Temp;Humidity;BMP_temperature;BMP_pressure;BME280_temperature;BME280_humidity;BME280_pressure;Samples;Min_cycle;Max_cycle;Signal;HPM_P1;HPM_P2
2021/10/14 00:02:04;;;;;;;;;13.25;10.75;;;;;;;;5063227;28;11533;-76
2021/10/14 00:04:31;;;;;;;;;19.00;13.75;;;;;;;;5066386;28;11552;-76
2021/10/14 00:06:58;;;;;;;;;9.00;9.00;;;;;;;;5065153;28;11593;-75
2021/10/14 00:09:26;;;;;;;;;12.00;10.25;;;;;;;;5065461;28;11658;-79
2021/10/14 00:11:53;;;;;;;;;13.25;13.25;;;;;;;;5064035;28;11570;-80
2021/10/14 00:14:20;;;;;;;;;11.50;11.50;;;;;;;;5064601;28;11583;-74
2021/10/14 00:16:49;;;;;;;;;12.00;10.00;;;;;;;;5063693;28;11594;-77
2021/10/14 00:19:17;;;;;;;;;13.00;9.50;;;;;;;;5065811;28;11531;-75
2021/10/14 00:21:44;;;;;;;;;15.00;13.00;;;;;;;;5064445;28;11523;-75
2021/10/14 00:24:11;;;;;;;;;12.00;8.75;;;;;;;;5065320;28;11576;-76
2021/10/14 00:26:39;;;;;;;;;13.25;12.75;;;;;;;;5065701;28;11640;-77
2021/10/14 00:29:06;;;;;;;;;14.00;13.00;;;;;;;;5065382;28;11704;-75
2021/10/14 00:31:33;;;;;;;;;14.25;14.25;;;;;;;;5063616;28;11507;-75
2021/10/14 00:34:02;;;;;;;;;12.50;12.50;;;;;;;;5054168;28;12579;-75
2021/10/14 00:36:29;;;;;;;;;14.75;14.00;;;;;;;;5064849;28;11587;-76
2021/10/14 00:38:57;;;;;;;;;18.50;17.00;;;;;;;;5063512;28;11571;-75
2021/10/14 00:41:24;;;;;;;;;10.00;9.00;;;;;;;;5061570;28;11599;-76
2021/10/14 00:43:57;;;;;;;;;16.50;14.00;;;;;;;;5062087;28;12257;-75
2021/10/14 00:46:24;;;;;;;;;21.00;21.00;;;;;;;;5063567;28;11561;-82
2021/10/14 00:48:52;;;;;;;;;18.75;18.25;;;;;;;;5062980;28;11568;-76
2021/10/14 00:51:21;;;;;;;;;19.50;17.75;;;;;;;;5064218;28;11600;-76
2021/10/14 00:53:48;;;;;;;;;16.25;16.25;;;;;;;;5063459;28;11558;-78
2021/10/14 00:56:17;;;;;;;;;19.50;19.50;;;;;;;;5064280;28;11670;-80
2021/10/14 00:58:44;;;;;;;;;18.00;18.00;;;;;;;;5064329;28;11559;-75
2021/10/14 01:01:12;;;;;;;;;15.00;15.00;;;;;;;;5054763;28;11479;-76
2021/10/14 01:03:39;;;;;;;;;27.00;20.25;;;;;;;;5063215;28;11586;-76
2021/10/14 01:06:06;;;;;;;;;21.00;18.00;;;;;;;;5065708;28;11605;-76
2021/10/14 01:08:37;;;;;;;;;17.50;16.50;;;;;;;;5062514;28;11552;-76
2021/10/14 01:11:04;;;;;;;;;19.00;14.25;;;;;;;;5065036;28;11560;-75
2021/10/14 01:13:32;;;;;;;;;18.50;15.75;;;;;;;;5063274;28;11607;-76
2021/10/14 01:15:59;;;;;;;;;18.75;16.50;;;;;;;;5059829;28;11714;-75
2021/10/14 01:18:26;;;;;;;;;21.75;19.25;;;;;;;;5067229;28;12293;-76
2021/10/14 01:20:55;;;;;;;;;20.50;18.00;;;;;;;;5063400;28;11584;-75
2021/10/14 01:23:22;;;;;;;;;26.25;20.50;;;;;;;;5067872;28;11584;-76
2021/10/14 01:25:49;;;;;;;;;22.50;20.50;;;;;;;;5064524;28;11680;-80
2021/10/14 01:28:17;;;;;;;;;21.75;17.50;;;;;;;;5064767;28;11561;-80
2021/10/14 01:30:44;;;;;;;;;17.00;17.00;;;;;;;;5062457;28;11500;-85
2021/10/14 01:33:12;;;;;;;;;19.50;15.25;;;;;;;;5064009;28;11681;-82
2021/10/14 01:35:39;;;;;;;;;21.75;18.25;;;;;;;;5064555;28;11555;-79
2021/10/14 01:38:08;;;;;;;;;20.25;18.00;;;;;;;;5062961;28;11590;-75
2021/10/14 01:40:35;;;;;;;;;20.75;19.50;;;;;;;;5064907;28;11674;-79
2021/10/14 01:43:02;;;;;;;;;17.25;15.25;;;;;;;;5064003;28;11593;-77
2021/10/14 01:45:30;;;;;;;;;18.00;16.75;;;;;;;;5064711;28;11550;-81
2021/10/14 01:47:57;;;;;;;;;18.00;18.00;;;;;;;;5062455;28;11576;-76
2021/10/14 01:50:24;;;;;;;;;20.25;18.75;;;;;;;;5063933;28;11613;-77
2021/10/14 01:52:51;;;;;;;;;19.25;19.25;;;;;;;;5063138;28;11581;-75
2021/10/14 01:55:20;;;;;;;;;21.25;17.00;;;;;;;;5061616;28;12374;-79
2021/10/14 01:57:47;;;;;;;;;16.00;14.00;;;;;;;;5063852;28;11558;-74
2021/10/14 02:00:15;;;;;;;;;15.50;15.50;;;;;;;;5060857;28;11566;-76
2021/10/14 02:02:42;;;;;;;;;17.50;16.50;;;;;;;;5059893;28;11591;-75
2021/10/14 02:05:10;;;;;;;;;21.25;17.50;;;;;;;;5061240;28;11571;-75
2021/10/14 02:07:37;;;;;;;;;21.50;18.75;;;;;;;;5061823;28;11555;-77
2021/10/14 02:10:05;;;;;;;;;18.00;15.25;;;;;;;;5063068;28;11702;-75
2021/10/14 02:12:34;;;;;;;;;16.00;15.50;;;;;;;;5062205;28;11689;-76
2021/10/14 02:15:02;;;;;;;;;17.50;15.50;;;;;;;;5063078;28;11684;-78
2021/10/14 02:17:29;;;;;;;;;18.00;18.00;;;;;;;;5061439;28;11695;-80
2021/10/14 02:19:56;;;;;;;;;17.50;13.25;;;;;;;;5063568;28;12329;-76
2021/10/14 02:22:24;;;;;;;;;18.50;17.25;;;;;;;;5061682;28;12154;-75
2021/10/14 02:24:51;;;;;;;;;17.50;17.00;;;;;;;;5062965;28;11612;-76
2021/10/14 02:27:18;;;;;;;;;22.50;18.25;;;;;;;;5061301;28;11579;-75
2021/10/14 02:29:47;;;;;;;;;16.75;15.75;;;;;;;;5063068;28;11569;-78
2021/10/14 02:32:14;;;;;;;;;14.75;14.75;;;;;;;;5062657;28;11655;-75
2021/10/14 02:34:41;;;;;;;;;14.00;14.00;;;;;;;;5063189;28;11752;-78
2021/10/14 02:37:09;;;;;;;;;19.00;15.25;;;;;;;;5063075;28;12319;-75
2021/10/14 02:39:36;;;;;;;;;18.75;17.25;;;;;;;;5062521;28;11567;-76
2021/10/14 02:42:04;;;;;;;;;9.25;9.25;;;;;;;;5059162;28;11581;-77
2021/10/14 02:44:31;;;;;;;;;21.25;14.25;;;;;;;;5061162;28;11544;-77
2021/10/14 02:47:00;;;;;;;;;20.50;18.00;;;;;;;;5062218;28;11582;-75
2021/10/14 02:49:27;;;;;;;;;20.50;15.50;;;;;;;;5062920;28;11580;-75
2021/10/14 02:51:54;;;;;;;;;20.25;15.25;;;;;;;;5062338;28;11573;-75
2021/10/14 02:54:22;;;;;;;;;19.25;17.50;;;;;;;;5060755;28;11570;-80
2021/10/14 02:56:49;;;;;;;;;13.25;12.25;;;;;;;;5061677;28;12338;-82
2021/10/14 02:59:16;;;;;;;;;16.50;14.00;;;;;;;;5062721;28;11599;-78
2021/10/14 03:01:43;;;;;;;;;11.50;10.00;;;;;;;;5059553;28;11550;-80
2021/10/14 03:04:12;;;;;;;;;16.25;15.75;;;;;;;;5063430;28;11553;-78
2021/10/14 03:06:39;;;;;;;;;16.75;16.75;;;;;;;;5061121;28;11606;-76
2021/10/14 03:09:07;;;;;;;;;17.75;17.75;;;;;;;;5065804;28;11574;-81
2021/10/14 03:11:34;;;;;;;;;14.00;14.00;;;;;;;;5067153;28;11708;-80
2021/10/14 03:14:01;;;;;;;;;16.75;16.50;;;;;;;;5066799;28;11576;-76
2021/10/14 03:16:29;;;;;;;;;18.50;18.50;;;;;;;;5068467;28;11695;-76
2021/10/14 03:18:56;;;;;;;;;12.75;12.50;;;;;;;;5065476;28;11558;-77
2021/10/14 03:21:25;;;;;;;;;17.00;14.25;;;;;;;;5066004;28;11577;-76
2021/10/14 03:23:52;;;;;;;;;14.00;12.50;;;;;;;;5063896;28;11591;-75
2021/10/14 03:26:20;;;;;;;;;16.25;15.50;;;;;;;;5066146;28;11057;-76
2021/10/14 03:28:47;;;;;;;;;17.75;17.75;;;;;;;;5065726;28;11712;-75
2021/10/14 03:31:14;;;;;;;;;18.50;16.00;;;;;;;;5064699;28;11010;-76
2021/10/14 03:33:41;;;;;;;;;16.75;14.25;;;;;;;;5066305;28;11609;-78
2021/10/14 03:36:09;;;;;;;;;10.50;10.50;;;;;;;;5061107;28;11547;-78
2021/10/14 03:38:37;;;;;;;;;13.00;13.00;;;;;;;;5066221;28;11593;-77
2021/10/14 03:41:05;;;;;;;;;13.50;13.00;;;;;;;;5065474;28;11545;-76
2021/10/14 03:43:32;;;;;;;;;13.75;13.25;;;;;;;;5066688;28;11662;-76
2021/10/14 03:46:00;;;;;;;;;13.75;13.75;;;;;;;;5068874;28;11659;-76
2021/10/14 03:48:27;;;;;;;;;14.25;14.25;;;;;;;;5067197;28;11610;-78
2021/10/14 03:50:54;;;;;;;;;17.75;14.75;;;;;;;;5066836;28;11680;-76
2021/10/14 03:53:22;;;;;;;;;17.00;16.75;;;;;;;;5063250;28;11571;-75
2021/10/14 03:55:50;;;;;;;;;18.00;16.00;;;;;;;;5066038;28;11673;-81
2021/10/14 03:58:18;;;;;;;;;14.25;14.25;;;;;;;;5065359;28;11578;-75
2021/10/14 04:00:46;;;;;;;;;13.00;13.00;;;;;;;;5064952;28;11698;-80
2021/10/14 04:03:14;;;;;;;;;12.75;12.75;;;;;;;;5063440;28;12329;-75
2021/10/14 04:05:41;;;;;;;;;10.75;10.75;;;;;;;;5064638;28;11722;-76
2021/10/14 04:08:08;;;;;;;;;13.50;12.75;;;;;;;;5066704;28;11612;-77
2021/10/14 04:10:37;;;;;;;;;13.00;13.00;;;;;;;;5064492;28;11546;-84
2021/10/14 04:13:06;;;;;;;;;16.25;16.25;;;;;;;;5068915;28;11025;-80
2021/10/14 04:15:33;;;;;;;;;14.00;11.50;;;;;;;;5063818;28;11718;-77
2021/10/14 04:18:00;;;;;;;;;12.25;12.25;;;;;;;;5065972;28;11676;-81
2021/10/14 04:20:28;;;;;;;;;17.00;13.75;;;;;;;;5062987;28;11605;-77
2021/10/14 04:22:55;;;;;;;;;9.50;9.50;;;;;;;;5064592;28;11706;-78
2021/10/14 04:25:23;;;;;;;;;15.25;14.00;;;;;;;;5066570;28;11636;-76
2021/10/14 04:27:50;;;;;;;;;14.50;12.25;;;;;;;;5064577;28;11639;-78
2021/10/14 04:30:19;;;;;;;;;9.50;9.50;;;;;;;;5068447;28;11548;-76
2021/10/14 04:32:47;;;;;;;;;11.25;11.25;;;;;;;;5064668;28;11617;-80
2021/10/14 04:35:14;;;;;;;;;12.00;11.25;;;;;;;;5065234;28;11616;-76
2021/10/14 04:37:42;;;;;;;;;1.50;0.00;;;;;;;;5061548;28;11543;-79
2021/10/14 04:40:11;;;;;;;;;12.50;12.25;;;;;;;;5044677;28;11524;-81
2021/10/14 04:42:38;;;;;;;;;13.50;11.00;;;;;;;;5045310;28;11587;-79
2021/10/14 04:45:07;;;;;;;;;12.75;12.75;;;;;;;;5043518;28;11554;-79
2021/10/14 04:47:36;;;;;;;;;14.25;12.50;;;;;;;;5043383;28;11579;-75
2021/10/14 04:50:04;;;;;;;;;9.75;9.00;;;;;;;;5040549;28;12865;-72
2021/10/14 04:52:31;;;;;;;;;10.75;10.00;;;;;;;;5048011;28;11054;-72
2021/10/14 04:54:59;;;;;;;;;17.50;12.00;;;;;;;;5043959;28;11541;-73
2021/10/14 04:57:26;;;;;;;;;14.75;12.75;;;;;;;;5042838;28;11611;-74
2021/10/14 04:59:54;;;;;;;;;14.00;11.50;;;;;;;;5045619;28;11514;-71
2021/10/14 05:02:21;;;;;;;;;14.00;12.00;;;;;;;;5041345;28;11552;-73
2021/10/14 05:04:50;;;;;;;;;13.25;13.25;;;;;;;;5043048;28;11582;-73
2021/10/14 05:07:17;;;;;;;;;15.25;11.25;;;;;;;;5041847;28;11538;-74
2021/10/14 05:09:44;;;;;;;;;13.75;10.00;;;;;;;;5043606;28;11549;-74
2021/10/14 05:12:12;;;;;;;;;13.00;11.00;;;;;;;;5044302;28;11683;-74
2021/10/14 05:14:39;;;;;;;;;12.00;12.00;;;;;;;;5043623;28;11623;-80
2021/10/14 05:17:06;;;;;;;;;12.25;10.25;;;;;;;;5043599;28;12294;-75
2021/10/14 05:19:33;;;;;;;;;14.75;12.50;;;;;;;;5043392;28;12379;-75
2021/10/14 05:22:02;;;;;;;;;9.00;6.00;;;;;;;;5044724;28;11547;-73
2021/10/14 05:24:29;;;;;;;;;11.50;11.50;;;;;;;;5041771;28;11582;-74
2021/10/14 05:26:56;;;;;;;;;12.00;11.50;;;;;;;;5048728;28;11603;-75
2021/10/14 05:29:24;;;;;;;;;10.50;9.75;;;;;;;;5040622;28;11542;-75
2021/10/14 05:31:51;;;;;;;;;10.00;10.00;;;;;;;;5050281;28;11531;-77
2021/10/14 05:34:18;;;;;;;;;14.00;13.50;;;;;;;;5041319;28;11509;-73
2021/10/14 05:36:45;;;;;;;;;15.25;13.75;;;;;;;;5042627;28;11524;-74
2021/10/14 05:39:14;;;;;;;;;32.00;21.25;;;;;;;;5059451;28;11594;-73
2021/10/14 05:41:41;;;;;;;;;17.75;12.25;;;;;;;;5059815;28;11571;-74
2021/10/14 05:44:09;;;;;;;;;14.50;14.50;;;;;;;;5062363;28;11570;-75
2021/10/14 05:46:36;;;;;;;;;14.00;14.00;;;;;;;;5058274;28;11547;-74
2021/10/14 05:49:04;;;;;;;;;14.75;10.25;;;;;;;;5061952;28;11710;-73
2021/10/14 05:51:31;;;;;;;;;12.75;10.75;;;;;;;;5062089;28;11712;-73
2021/10/14 05:53:58;;;;;;;;;13.50;12.00;;;;;;;;5060175;28;11572;-75
2021/10/14 05:56:27;;;;;;;;;10.00;10.00;;;;;;;;5061573;28;11585;-74
2021/10/14 05:58:55;;;;;;;;;12.50;12.50;;;;;;;;5061796;28;11575;-74
2021/10/14 06:01:22;;;;;;;;;14.75;13.00;;;;;;;;5062680;28;11528;-74
2021/10/14 06:03:50;;;;;;;;;10.25;10.25;;;;;;;;5058465;28;12197;-75
2021/10/14 06:06:17;;;;;;;;;13.75;12.75;;;;;;;;5059204;28;11539;-75
2021/10/14 06:08:45;;;;;;;;;15.75;15.00;;;;;;;;5062618;28;11562;-74
2021/10/14 06:11:14;;;;;;;;;15.50;13.25;;;;;;;;5063650;28;11705;-79
2021/10/14 06:13:42;;;;;;;;;10.00;10.00;;;;;;;;5063604;28;12327;-74
2021/10/14 06:16:10;;;;;;;;;11.00;10.75;;;;;;;;5062047;28;11553;-73
2021/10/14 06:18:39;;;;;;;;;11.00;10.25;;;;;;;;5064225;28;11547;-74
2021/10/14 06:21:06;;;;;;;;;18.25;14.50;;;;;;;;5062496;28;13018;-73
2021/10/14 06:23:35;;;;;;;;;16.75;14.00;;;;;;;;5065389;28;11594;-75
2021/10/14 06:26:02;;;;;;;;;13.00;13.00;;;;;;;;5061570;28;11575;-73
2021/10/14 06:28:30;;;;;;;;;11.25;11.25;;;;;;;;5063288;28;11728;-75
2021/10/14 06:30:59;;;;;;;;;18.75;16.50;;;;;;;;5062333;28;11580;-74
2021/10/14 06:33:26;;;;;;;;;11.75;10.75;;;;;;;;5063026;28;11580;-74
2021/10/14 06:35:53;;;;;;;;;13.50;12.00;;;;;;;;5062920;28;11539;-74
2021/10/14 06:38:21;;;;;;;;;15.25;15.25;;;;;;;;5062655;28;11568;-74
2021/10/14 06:40:49;;;;;;;;;16.00;14.50;;;;;;;;5063993;28;11682;-74
2021/10/14 06:43:16;;;;;;;;;20.50;15.25;;;;;;;;5062562;28;11594;-74
2021/10/14 06:45:44;;;;;;;;;17.25;17.25;;;;;;;;5062438;28;11592;-74
2021/10/14 06:48:12;;;;;;;;;21.00;21.00;;;;;;;;5063578;28;11616;-74
2021/10/14 06:50:40;;;;;;;;;33.75;30.50;;;;;;;;5063228;28;11597;-74
2021/10/14 06:53:10;;;;;;;;;30.25;30.25;;;;;;;;5064713;28;11664;-74
2021/10/14 06:55:37;;;;;;;;;21.25;21.25;;;;;;;;5058737;28;11727;-74
2021/10/14 06:58:04;;;;;;;;;32.25;30.00;;;;;;;;5061282;28;11560;-75
2021/10/14 07:00:32;;;;;;;;;55.25;41.50;;;;;;;;5060133;28;11609;-76
2021/10/14 07:02:59;;;;;;;;;35.25;31.00;;;;;;;;5065782;28;11740;-75
2021/10/14 07:05:28;;;;;;;;;35.25;30.25;;;;;;;;5062835;28;12364;-74
2021/10/14 07:07:55;;;;;;;;;48.00;43.50;;;;;;;;5064623;28;11576;-75
2021/10/14 07:10:23;;;;;;;;;50.50;43.00;;;;;;;;5065623;28;12469;-75
2021/10/14 07:12:52;;;;;;;;;61.25;47.50;;;;;;;;5060735;28;11616;-74
2021/10/14 07:15:20;;;;;;;;;43.00;37.25;;;;;;;;5059809;28;11576;-75
2021/10/14 07:17:47;;;;;;;;;43.25;40.50;;;;;;;;5058956;28;11616;-75
2021/10/14 07:20:14;;;;;;;;;35.00;33.00;;;;;;;;5063119;28;11608;-75
2021/10/14 07:22:43;;;;;;;;;37.50;37.50;;;;;;;;5057855;28;11582;-74
2021/10/14 07:25:11;;;;;;;;;17.75;17.75;;;;;;;;5061404;28;11588;-74
2021/10/14 07:27:38;;;;;;;;;29.50;28.00;;;;;;;;5061551;28;11546;-74
2021/10/14 07:30:07;;;;;;;;;21.50;21.50;;;;;;;;5059836;28;11711;-73
2021/10/14 07:32:35;;;;;;;;;23.50;22.50;;;;;;;;5064605;28;11892;-75
2021/10/14 07:35:04;;;;;;;;;21.25;18.25;;;;;;;;5059957;28;11575;-75
2021/10/14 07:37:34;;;;;;;;;26.00;22.25;;;;;;;;5060154;28;11618;-76
2021/10/14 07:40:04;;;;;;;;;17.00;16.00;;;;;;;;5056781;28;11574;-75
2021/10/14 07:42:31;;;;;;;;;13.75;13.75;;;;;;;;5067776;28;12390;-76
2021/10/14 07:44:58;;;;;;;;;17.50;17.50;;;;;;;;5060328;28;11650;-76
2021/10/14 07:47:25;;;;;;;;;20.50;19.00;;;;;;;;5061748;28;11585;-76
2021/10/14 07:49:52;;;;;;;;;16.00;16.00;;;;;;;;5060338;28;11577;-76
2021/10/14 07:52:20;;;;;;;;;19.00;17.00;;;;;;;;5057556;28;11583;-75
2021/10/14 07:54:47;;;;;;;;;22.50;22.25;;;;;;;;5066935;28;11581;-75
2021/10/14 07:57:16;;;;;;;;;24.25;24.25;;;;;;;;5063542;28;11670;-74
2021/10/14 07:59:44;;;;;;;;;28.25;20.75;;;;;;;;5067122;28;12419;-75
2021/10/14 08:02:13;;;;;;;;;20.25;20.25;;;;;;;;5061795;28;11523;-76
2021/10/14 08:04:40;;;;;;;;;20.00;18.00;;;;;;;;5064786;28;11577;-75
2021/10/14 08:07:07;;;;;;;;;22.00;19.50;;;;;;;;5066563;28;11579;-75
2021/10/14 08:09:34;;;;;;;;;23.50;22.00;;;;;;;;5065132;28;11589;-75
2021/10/14 08:12:02;;;;;;;;;22.25;22.25;;;;;;;;5066585;28;11621;-76
2021/10/14 08:14:30;;;;;;;;;21.75;21.75;;;;;;;;5064050;28;11595;-75
2021/10/14 08:16:58;;;;;;;;;24.25;21.25;;;;;;;;5066382;28;11544;-75
2021/10/14 08:19:25;;;;;;;;;23.00;18.75;;;;;;;;5065448;28;11779;-75
2021/10/14 08:21:53;;;;;;;;;19.25;19.25;;;;;;;;5066185;28;11498;-75
2021/10/14 08:24:20;;;;;;;;;20.50;19.00;;;;;;;;5066436;28;11492;-75
2021/10/14 08:26:48;;;;;;;;;18.00;18.00;;;;;;;;5064947;28;11672;-75
2021/10/14 08:29:16;;;;;;;;;26.00;22.75;;;;;;;;5066375;28;11517;-75
2021/10/14 08:31:45;;;;;;;;;19.25;19.25;;;;;;;;5064762;28;11498;-76
2021/10/14 08:34:12;;;;;;;;;15.75;15.75;;;;;;;;5066503;28;12346;-76
2021/10/14 08:36:40;;;;;;;;;16.50;15.75;;;;;;;;5065914;28;11651;-75
2021/10/14 08:39:08;;;;;;;;;17.75;16.00;;;;;;;;5060157;28;12316;-75
2021/10/14 08:41:35;;;;;;;;;15.75;15.75;;;;;;;;5066500;28;11558;-75
2021/10/14 08:44:03;;;;;;;;;19.00;19.00;;;;;;;;5064822;28;11267;-76
2021/10/14 08:46:31;;;;;;;;;18.50;18.50;;;;;;;;5065956;28;11048;-75
2021/10/14 08:49:00;;;;;;;;;24.75;22.25;;;;;;;;5064656;28;10966;-76
2021/10/14 08:51:28;;;;;;;;;27.50;27.25;;;;;;;;5065744;28;11198;-76
2021/10/14 08:53:56;;;;;;;;;22.00;21.50;;;;;;;;5065069;28;11560;-76
2021/10/14 08:56:23;;;;;;;;;18.75;18.75;;;;;;;;5066016;28;11328;-76
2021/10/14 08:58:51;;;;;;;;;21.50;21.50;;;;;;;;5065850;28;10668;-76
2021/10/14 09:01:19;;;;;;;;;22.75;21.75;;;;;;;;5062439;28;10374;-77
2021/10/14 09:03:48;;;;;;;;;23.75;19.25;;;;;;;;5066121;28;10551;-76
2021/10/14 09:06:18;;;;;;;;;20.00;20.00;;;;;;;;5064213;28;10265;-76
2021/10/14 09:08:51;;;;;;;;;20.25;16.75;;;;;;;;5065955;28;10361;-76
2021/10/14 09:11:21;;;;;;;;;22.00;18.50;;;;;;;;5064440;28;10127;-75
2021/10/14 09:13:50;;;;;;;;;15.00;14.50;;;;;;;;5065206;28;10185;-76
2021/10/14 09:16:23;;;;;;;;;18.50;16.00;;;;;;;;5065376;28;9907;-75
2021/10/14 09:18:51;;;;;;;;;16.50;16.50;;;;;;;;5063651;28;9792;-76
2021/10/14 09:21:25;;;;;;;;;19.75;16.75;;;;;;;;5063923;28;9772;-76
2021/10/14 09:23:53;;;;;;;;;16.00;16.00;;;;;;;;5064655;28;10610;-77
2021/10/14 09:26:32;;;;;;;;;14.00;14.00;;;;;;;;5065658;28;9573;-75
2021/10/14 09:29:11;;;;;;;;;9.67;8.33;;;;;;;;5063309;28;9426;-75
2021/10/14 09:31:49;;;;;;;;;8.00;5.00;;;;;;;;5063776;28;9118;-76
2021/10/14 09:34:31;;;;;;;;;5.00;5.00;;;;;;;;5065097;28;9113;-76
2021/10/14 09:37:02;;;;;;;;;5.75;5.75;;;;;;;;5061562;28;9096;-75
2021/10/14 09:39:30;;;;;;;;;9.33;9.00;;;;;;;;5062647;28;8875;-76
2021/10/14 09:41:58;;;;;;;;;9.50;9.00;;;;;;;;5064359;28;8970;-75
2021/10/14 09:44:27;;;;;;;;;5.50;5.50;;;;;;;;5064789;28;8874;-75
2021/10/14 09:46:55;;;;;;;;;6.50;6.50;;;;;;;;5064854;28;8863;-75
2021/10/14 09:49:27;;;;;;;;;8.25;5.50;;;;;;;;5062701;28;8948;-74
2021/10/14 09:51:56;;;;;;;;;5.25;5.25;;;;;;;;5064822;28;8858;-77
2021/10/14 09:54:25;;;;;;;;;6.00;6.00;;;;;;;;5064653;28;8854;-75
2021/10/14 09:56:52;;;;;;;;;7.50;5.25;;;;;;;;5064833;28;9671;-76
2021/10/14 09:59:20;;;;;;;;;4.00;4.00;;;;;;;;5050778;28;8908;-76
2021/10/14 10:01:49;;;;;;;;;8.50;5.50;;;;;;;;5063434;28;8811;-77
2021/10/14 10:04:18;;;;;;;;;4.25;4.25;;;;;;;;5064785;28;8900;-75
2021/10/14 10:06:48;;;;;;;;;6.50;4.50;;;;;;;;5063647;28;8886;-75
2021/10/14 10:09:17;;;;;;;;;5.00;4.00;;;;;;;;5063114;28;8959;-75
2021/10/14 10:11:48;;;;;;;;;5.00;3.75;;;;;;;;5063267;28;8871;-75
2021/10/14 10:14:16;;;;;;;;;5.50;5.50;;;;;;;;5064373;28;9516;-75
2021/10/14 10:16:58;;;;;;;;;6.25;6.00;;;;;;;;5063115;28;8891;-74
2021/10/14 10:19:46;;;;;;;;;3.50;3.50;;;;;;;;5063475;28;9476;-77
2021/10/14 10:22:50;;;;;;;;;4.25;4.25;;;;;;;;5064447;28;8932;-75
2021/10/14 10:25:19;;;;;;;;;4.00;2.25;;;;;;;;5063728;28;8899;-76
2021/10/14 10:27:48;;;;;;;;;3.00;3.00;;;;;;;;5064317;28;8902;-76
2021/10/14 10:30:28;;;;;;;;;4.00;4.00;;;;;;;;5061493;28;8874;-76
2021/10/14 10:32:56;;;;;;;;;4.00;4.00;;;;;;;;5062839;28;8870;-75
2021/10/14 10:35:39;;;;;;;;;5.50;2.00;;;;;;;;5064144;28;8886;-75
2021/10/14 10:38:19;;;;;;;;;3.00;3.00;;;;;;;;5055417;28;8873;-76
2021/10/14 10:40:48;;;;;;;;;1.00;1.00;;;;;;;;5065829;28;8886;-77
2021/10/14 10:43:21;;;;;;;;;4.50;3.00;;;;;;;;5064160;28;8889;-77
2021/10/14 10:45:52;;;;;;;;;2.25;2.25;;;;;;;;5057757;28;8870;-78
2021/10/14 10:48:24;;;;;;;;;5.00;3.25;;;;;;;;5062519;28;9029;-76
2021/10/14 10:50:54;;;;;;;;;3.75;3.00;;;;;;;;5058298;28;8878;-76
2021/10/14 10:53:23;;;;;;;;;3.00;3.00;;;;;;;;5063101;28;8882;-75
2021/10/14 10:55:55;;;;;;;;;3.00;3.00;;;;;;;;5064471;28;9466;-77
2021/10/14 10:58:47;;;;;;;;;2.75;2.75;;;;;;;;5049895;28;8859;-77
2021/10/14 11:01:17;;;;;;;;;2.75;2.75;;;;;;;;5053570;28;8969;-75
2021/10/14 11:03:55;;;;;;;;;5.25;3.75;;;;;;;;5062903;28;9644;-75
2021/10/14 11:06:23;;;;;;;;;3.00;3.00;;;;;;;;5050435;28;8933;-75
2021/10/14 11:08:53;;;;;;;;;2.00;2.00;;;;;;;;5062040;28;8861;-76
2021/10/14 11:11:21;;;;;;;;;1.00;0.00;;;;;;;;5061798;28;8874;-76
2021/10/14 11:13:51;;;;;;;;;3.75;3.75;;;;;;;;5063290;28;8850;-75
2021/10/14 11:16:21;;;;;;;;;5.25;4.75;;;;;;;;5061876;28;8870;-75
2021/10/14 11:18:52;;;;;;;;;4.50;3.25;;;;;;;;5063870;28;9001;-75
2021/10/14 11:21:21;;;;;;;;;4.00;4.00;;;;;;;;5053591;28;8863;-75
2021/10/14 11:23:50;;;;;;;;;5.00;3.25;;;;;;;;5064147;28;8894;-75
2021/10/14 11:26:19;;;;;;;;;3.75;2.00;;;;;;;;5062042;28;8851;-75
2021/10/14 11:29:16;;;;;;;;;3.25;3.25;;;;;;;;5064776;28;8890;-76
2021/10/14 11:31:46;;;;;;;;;5.00;5.00;;;;;;;;5065847;28;8838;-76
2021/10/14 11:34:15;;;;;;;;;7.00;3.80;;;;;;;;5066056;28;8878;-75
2021/10/14 11:36:51;;;;;;;;;4.00;2.00;;;;;;;;5067357;28;8884;-75
2021/10/14 11:39:20;;;;;;;;;3.00;3.00;;;;;;;;5065687;28;8874;-76
2021/10/14 11:41:55;;;;;;;;;4.80;4.00;;;;;;;;5065844;28;8884;-75
2021/10/14 11:44:26;;;;;;;;;4.20;3.20;;;;;;;;5067399;28;8854;-76
2021/10/14 11:46:53;;;;;;;;;5.00;3.40;;;;;;;;5066324;28;9636;-74
2021/10/14 11:49:21;;;;;;;;;6.00;4.00;;;;;;;;5066907;28;8901;-75
2021/10/14 11:51:50;;;;;;;;;3.00;3.00;;;;;;;;5066313;28;8862;-73
2021/10/14 11:54:18;;;;;;;;;3.00;3.00;;;;;;;;5067531;28;8943;-75
2021/10/14 11:56:47;;;;;;;;;2.00;2.00;;;;;;;;5066526;28;8863;-74
2021/10/14 11:59:17;;;;;;;;;5.80;3.00;;;;;;;;5066974;28;8866;-74
2021/10/14 12:01:54;;;;;;;;;1.00;1.00;;;;;;;;5066635;28;8809;-75
2021/10/14 12:04:25;;;;;;;;;2.00;2.00;;;;;;;;5065931;28;8866;-75
2021/10/14 12:06:55;;;;;;;;;1.00;1.00;;;;;;;;5066538;28;8873;-74
2021/10/14 12:09:24;;;;;;;;;2.80;2.80;;;;;;;;5066030;28;8870;-74
2021/10/14 12:11:57;;;;;;;;;2.00;2.00;;;;;;;;5066698;28;8940;-75
2021/10/14 12:14:26;;;;;;;;;1.80;1.80;;;;;;;;5066382;28;8842;-74
2021/10/14 12:17:10;;;;;;;;;1.00;1.00;;;;;;;;5065964;28;8982;-75
2021/10/14 12:19:39;;;;;;;;;1.20;1.20;;;;;;;;5066996;28;8879;-74
2021/10/14 12:22:07;;;;;;;;;1.00;1.00;;;;;;;;5064554;28;9652;-74
2021/10/14 12:24:51;;;;;;;;;1.00;1.00;;;;;;;;5066698;28;8893;-74
2021/10/14 12:27:19;;;;;;;;;2.00;2.00;;;;;;;;5066267;28;8875;-75
2021/10/14 12:29:47;;;;;;;;;1.00;1.00;;;;;;;;5066140;28;8894;-74
2021/10/14 12:32:18;;;;;;;;;2.00;2.00;;;;;;;;5065869;28;8970;-75
2021/10/14 12:34:48;;;;;;;;;1.00;1.00;;;;;;;;5065200;28;8878;-74
2021/10/14 12:37:17;;;;;;;;;2.40;2.00;;;;;;;;5066440;28;8981;-75
2021/10/14 12:39:44;;;;;;;;;2.20;1.20;;;;;;;;5064787;28;8901;-74
2021/10/14 12:42:15;;;;;;;;;3.00;3.00;;;;;;;;5064791;28;8881;-75
2021/10/14 12:45:01;;;;;;;;;3.00;3.00;;;;;;;;5066063;28;8858;-74
2021/10/14 12:47:37;;;;;;;;;4.00;4.00;;;;;;;;5065495;28;8896;-75
2021/10/14 12:50:15;;;;;;;;;5.00;5.00;;;;;;;;5065842;28;8865;-74
2021/10/14 12:52:43;;;;;;;;;3.00;3.00;;;;;;;;5064740;28;8863;-74
2021/10/14 12:55:13;;;;;;;;;3.20;3.20;;;;;;;;5066568;28;8859;-74
2021/10/14 12:57:40;;;;;;;;;3.00;3.00;;;;;;;;5064231;28;8871;-74
2021/10/14 13:00:09;;;;;;;;;3.60;3.60;;;;;;;;5064620;28;8921;-74
2021/10/14 13:02:38;;;;;;;;;3.00;3.00;;;;;;;;5064735;28;8867;-75
2021/10/14 13:05:07;;;;;;;;;5.80;4.40;;;;;;;;5064647;28;8874;-75
2021/10/14 13:07:34;;;;;;;;;5.80;4.80;;;;;;;;5065771;28;8867;-74
2021/10/14 13:10:02;;;;;;;;;6.00;6.00;;;;;;;;5064428;28;8862;-75
2021/10/14 13:12:32;;;;;;;;;5.40;4.40;;;;;;;;5065263;28;8889;-75
2021/10/14 13:14:59;;;;;;;;;4.80;4.80;;;;;;;;5064481;28;8984;-75
2021/10/14 13:17:26;;;;;;;;;6.20;3.80;;;;;;;;5065156;28;8879;-75
2021/10/14 13:19:55;;;;;;;;;5.00;5.00;;;;;;;;5065582;28;8985;-76
2021/10/14 13:22:22;;;;;;;;;6.60;6.60;;;;;;;;5064278;28;8889;-75
2021/10/14 13:24:49;;;;;;;;;6.00;6.00;;;;;;;;5065968;28;8913;-75
2021/10/14 13:27:17;;;;;;;;;6.80;6.80;;;;;;;;5064324;28;8890;-75
2021/10/14 13:29:45;;;;;;;;;4.60;4.60;;;;;;;;5065587;28;9020;-74
2021/10/14 13:32:12;;;;;;;;;10.60;7.20;;;;;;;;5062256;28;8847;-75
2021/10/14 13:34:40;;;;;;;;;5.00;5.00;;;;;;;;5063518;28;8863;-74
2021/10/14 13:37:13;;;;;;;;;6.20;6.20;;;;;;;;5064652;28;8843;-75
2021/10/14 13:39:41;;;;;;;;;5.60;5.60;;;;;;;;5060374;28;8939;-75
2021/10/14 13:42:09;;;;;;;;;6.40;5.00;;;;;;;;5063334;28;9005;-75
2021/10/14 13:44:36;;;;;;;;;4.40;4.00;;;;;;;;5063865;28;8854;-75
2021/10/14 13:47:04;;;;;;;;;4.60;4.60;;;;;;;;5064820;28;8940;-75
2021/10/14 13:49:31;;;;;;;;;6.00;6.00;;;;;;;;5063867;28;8948;-76
2021/10/14 13:51:58;;;;;;;;;4.00;4.00;;;;;;;;5064436;28;8867;-75
2021/10/14 13:54:27;;;;;;;;;3.00;3.00;;;;;;;;5065286;28;8900;-75
2021/10/14 13:56:55;;;;;;;;;4.40;4.40;;;;;;;;5064041;28;8867;-75
2021/10/14 13:59:22;;;;;;;;;3.60;3.60;;;;;;;;5065094;28;8886;-75
2021/10/14 14:01:49;;;;;;;;;4.80;4.80;;;;;;;;5063047;28;8834;-75
2021/10/14 14:04:17;;;;;;;;;6.00;6.00;;;;;;;;5064918;28;8866;-75
2021/10/14 14:06:44;;;;;;;;;5.00;5.00;;;;;;;;5063151;28;8874;-75
2021/10/14 14:09:12;;;;;;;;;6.20;5.00;;;;;;;;5063885;28;8998;-75
2021/10/14 14:11:43;;;;;;;;;4.80;4.80;;;;;;;;5062832;28;8855;-75
2021/10/14 14:14:11;;;;;;;;;3.60;3.60;;;;;;;;5061614;28;8894;-75
2021/10/14 14:16:38;;;;;;;;;5.80;5.80;;;;;;;;5062448;28;8871;-75
2021/10/14 14:19:06;;;;;;;;;8.20;6.40;;;;;;;;5061144;28;8874;-76
2021/10/14 14:21:34;;;;;;;;;5.60;5.60;;;;;;;;5061796;28;8874;-74
2021/10/14 14:24:01;;;;;;;;;6.60;5.40;;;;;;;;5062243;28;8889;-76
2021/10/14 14:26:30;;;;;;;;;7.00;7.00;;;;;;;;5064239;28;8873;-76
2021/10/14 14:28:59;;;;;;;;;5.00;5.00;;;;;;;;5063305;28;8859;-76
2021/10/14 14:31:30;;;;;;;;;4.80;4.80;;;;;;;;5063037;28;8791;-76
2021/10/14 14:33:57;;;;;;;;;5.40;5.40;;;;;;;;5062988;28;8842;-75
2021/10/14 14:36:26;;;;;;;;;6.80;6.60;;;;;;;;5063039;28;8878;-75
2021/10/14 14:38:55;;;;;;;;;7.40;7.40;;;;;;;;5063642;28;8870;-76
2021/10/14 14:41:22;;;;;;;;;8.00;8.00;;;;;;;;5062923;28;8858;-75